Time;durP1;ratioP1;P1;durP2;ratioP2;P2;SDS_P1;SDS_P2;PMS_P1;PMS_P2;Temp;Humidity;BMP_temperature;BMP_pressure;BME280_temperature;BME280_humidity;BME280_pressure;Samples;Min_cycle;Max_cycle;Signal;HPM_P1;HPM_P2
2020/12/03 00:00:34;;;;;;;31.60;22.80;;;5.80;91.50;;;;;;5069576;28;21286;-53
2020/12/03 00:03:02;;;;;;;36.93;24.67;;;5.80;91.40;;;;;;5050294;28;21011;-53
2020/12/03 00:05:30;;;;;;;32.17;20.70;;;5.80;91.30;;;;;;5049497;28;20638;-53
2020/12/03 00:07:57;;;;;;;30.13;21.30;;;5.80;91.20;;;;;;5051214;28;20792;-54
2020/12/03 00:10:24;;;;;;;28.10;21.03;;;5.80;91.20;;;;;;5052691;28;20630;-52
2020/12/03 00:13:09;;;;;;;28.63;22.33;;;5.80;91.20;;;;;;5036612;28;20698;-53
2020/12/03 00:15:37;;;;;;;32.80;21.70;;;5.70;91.40;;;;;;5032588;28;21206;-53
2020/12/03 00:18:04;;;;;;;34.73;24.10;;;5.60;91.60;;;;;;5049691;28;20617;-53
2020/12/03 00:20:31;;;;;;;28.47;20.13;;;5.60;91.70;;;;;;5041886;28;20622;-49
2020/12/03 00:22:58;;;;;;;30.33;21.93;;;5.60;91.80;;;;;;5031930;28;20623;-49
2020/12/03 00:25:25;;;;;;;34.77;24.83;;;5.70;91.90;;;;;;5031919;28;20634;-49
2020/12/03 00:27:53;;;;;;;33.50;23.87;;;5.70;91.80;;;;;;5031982;28;20654;-50
2020/12/03 00:30:20;;;;;;;35.30;25.47;;;5.70;91.70;;;;;;5040606;28;20634;-50
2020/12/03 00:32:50;;;;;;;28.30;19.77;;;5.70;91.70;;;;;;5047330;28;21205;-51
2020/12/03 00:35:18;;;;;;;33.43;22.43;;;5.70;91.90;;;;;;5032057;28;20996;-50
2020/12/03 00:37:44;;;;;;;23.67;18.20;;;5.70;91.80;;;;;;5043178;28;20659;-50
2020/12/03 00:40:11;;;;;;;28.80;18.70;;;5.70;91.60;;;;;;5042604;28;21183;-49
2020/12/03 00:42:38;;;;;;;29.70;19.83;;;5.70;91.80;;;;;;5031730;28;20677;-50
2020/12/03 00:45:06;;;;;;;30.03;20.83;;;5.60;91.70;;;;;;5032040;28;20668;-50
2020/12/03 00:47:33;;;;;;;25.20;17.90;;;5.60;91.80;;;;;;5043825;28;21014;-48
2020/12/03 00:50:01;;;;;;;30.03;20.57;;;5.60;91.60;;;;;;5031521;28;21194;-50
2020/12/03 00:52:27;;;;;;;30.97;22.07;;;5.60;91.50;;;;;;5041693;28;20787;-50
2020/12/03 00:54:54;;;;;;;27.83;20.97;;;5.60;91.60;;;;;;5031332;28;20680;-54
2020/12/03 00:57:21;;;;;;;30.20;20.70;;;5.50;91.70;;;;;;5031793;28;20651;-52
2020/12/03 00:59:48;;;;;;;31.30;19.30;;;5.60;92.00;;;;;;5050281;28;21000;-53
2020/12/03 01:02:15;;;;;;;28.33;20.10;;;5.60;91.80;;;;;;5051790;28;20637;-51
2020/12/03 01:04:41;;;;;;;26.60;19.40;;;5.50;91.60;;;;;;5050760;28;20681;-49
2020/12/03 01:07:09;;;;;;;28.40;20.27;;;5.50;92.00;;;;;;5051331;28;20645;-51
2020/12/03 01:09:36;;;;;;;28.27;19.33;;;5.40;92.20;;;;;;5033362;28;20725;-50
2020/12/03 01:12:04;;;;;;;28.10;19.13;;;5.30;92.10;;;;;;5031131;28;20688;-50
2020/12/03 01:14:34;;;;;;;32.63;23.03;;;5.40;92.30;;;;;;5031585;28;20667;-50
2020/12/03 01:17:02;;;;;;;28.73;20.03;;;5.50;92.20;;;;;;5039587;28;21510;-51
2020/12/03 01:19:29;;;;;;;27.47;19.00;;;5.50;92.10;;;;;;5049796;28;20622;-48
2020/12/03 01:21:56;;;;;;;31.93;19.87;;;5.50;91.80;;;;;;5051340;28;20630;-49
2020/12/03 01:24:23;;;;;;;30.83;20.23;;;5.60;92.10;;;;;;5033239;28;20689;-53
2020/12/03 01:26:50;;;;;;;27.00;19.47;;;5.60;91.80;;;;;;5040252;28;20673;-50
2020/12/03 01:29:17;;;;;;;25.10;21.03;;;5.60;91.60;;;;;;5050566;28;20658;-51
2020/12/03 01:31:44;;;;;;;25.13;19.97;;;5.60;91.50;;;;;;5050919;28;21040;-51
2020/12/03 01:34:11;;;;;;;28.07;20.60;;;5.60;91.50;;;;;;5049495;28;20629;-51
2020/12/03 01:36:38;;;;;;;30.87;21.50;;;5.60;91.50;;;;;;5030508;28;21230;-51
2020/12/03 01:39:05;;;;;;;29.70;21.57;;;5.60;91.50;;;;;;5030922;28;20689;-49
2020/12/03 01:41:33;;;;;;;28.50;20.10;;;5.70;91.50;;;;;;5031043;28;20682;-50
2020/12/03 01:44:00;;;;;;;26.73;20.10;;;5.60;91.40;;;;;;5030898;28;21037;-50
2020/12/03 01:46:26;;;;;;;25.77;19.27;;;5.70;91.40;;;;;;5050193;28;20658;-49
2020/12/03 01:48:54;;;;;;;33.80;21.77;;;5.70;91.30;;;;;;5050634;28;20708;-48
2020/12/03 01:51:26;;;;;;;29.20;19.90;;;5.70;91.30;;;;;;5050678;28;20625;-49
2020/12/03 01:53:54;;;;;;;31.77;20.90;;;5.70;91.30;;;;;;5059225;28;20627;-48
2020/12/03 01:56:43;;;;;;;24.80;17.23;;;5.60;91.20;;;;;;5048919;28;20935;-48
2020/12/03 01:59:10;;;;;;;28.30;18.43;;;5.60;91.40;;;;;;5050300;28;20637;-49
2020/12/03 02:01:37;;;;;;;26.43;18.33;;;5.60;91.40;;;;;;5050258;28;21044;-48
2020/12/03 02:04:04;;;;;;;30.87;17.80;;;5.60;91.50;;;;;;5034592;28;21061;-49
2020/12/03 02:06:32;;;;;;;27.40;19.53;;;5.60;91.40;;;;;;5030587;28;20663;-52
2020/12/03 02:08:59;;;;;;;30.00;19.90;;;5.60;91.50;;;;;;5030610;28;20659;-49
2020/12/03 02:11:25;;;;;;;28.43;16.77;;;5.50;91.50;;;;;;5030721;28;20657;-50
2020/12/03 02:13:55;;;;;;;29.33;21.20;;;5.60;91.60;;;;;;5043093;28;20630;-49
2020/12/03 02:16:22;;;;;;;28.43;19.53;;;5.50;91.50;;;;;;5050713;28;20815;-49
2020/12/03 02:18:49;;;;;;;25.90;18.53;;;5.50;91.60;;;;;;5050134;28;20615;-49
2020/12/03 02:21:17;;;;;;;26.70;18.73;;;5.60;91.50;;;;;;5049058;28;21211;-49
2020/12/03 02:23:44;;;;;;;31.53;20.57;;;5.50;91.70;;;;;;5049830;28;20630;-49
2020/12/03 02:26:10;;;;;;;28.30;20.27;;;5.50;91.90;;;;;;5049877;28;20696;-49
2020/12/03 02:28:37;;;;;;;28.60;19.47;;;5.60;91.90;;;;;;5049073;28;20719;-50
2020/12/03 02:31:04;;;;;;;27.53;19.33;;;5.60;91.80;;;;;;5043410;28;20697;-52
2020/12/03 02:33:31;;;;;;;32.30;20.50;;;5.60;91.70;;;;;;5048007;28;20626;-52
2020/12/03 02:35:58;;;;;;;30.90;21.07;;;5.60;91.70;;;;;;5049524;28;20666;-52
2020/12/03 02:38:29;;;;;;;29.13;20.90;;;5.70;91.60;;;;;;5049649;28;20683;-51
2020/12/03 02:40:56;;;;;;;28.63;18.80;;;5.60;91.40;;;;;;5050758;28;21219;-51
2020/12/03 02:43:23;;;;;;;28.00;18.93;;;5.60;91.40;;;;;;5049759;28;20664;-52
2020/12/03 02:45:50;;;;;;;32.00;20.73;;;5.50;91.50;;;;;;5049498;28;20780;-53
2020/12/03 02:48:17;;;;;;;29.67;22.20;;;5.60;91.60;;;;;;5050012;28;20634;-54
2020/12/03 02:50:43;;;;;;;35.63;24.50;;;5.50;91.50;;;;;;5049094;28;20659;-50
2020/12/03 02:53:11;;;;;;;29.13;20.53;;;5.60;91.60;;;;;;5037740;28;20740;-50
2020/12/03 02:55:39;;;;;;;29.20;17.63;;;5.50;91.60;;;;;;5065038;28;20742;-50
2020/12/03 02:58:06;;;;;;;29.57;19.90;;;5.40;91.60;;;;;;5049190;28;20627;-51
2020/12/03 03:00:32;;;;;;;29.60;22.23;;;5.40;92.00;;;;;;5049219;28;20676;-52
2020/12/03 03:02:59;;;;;;;33.87;20.50;;;5.40;92.10;;;;;;5049488;28;20622;-52
2020/12/03 03:05:26;;;;;;;29.83;19.40;;;5.50;92.10;;;;;;5049436;28;20680;-51
2020/12/03 03:07:53;;;;;;;31.40;21.30;;;5.50;92.10;;;;;;5049731;28;21211;-51
2020/12/03 03:10:21;;;;;;;35.33;20.17;;;5.60;91.90;;;;;;5049018;28;21296;-51
2020/12/03 03:12:49;;;;;;;32.63;23.40;;;5.60;91.70;;;;;;5049070;28;21181;-52
2020/12/03 03:15:17;;;;;;;28.80;19.40;;;5.60;91.70;;;;;;5038861;28;20700;-51
2020/12/03 03:17:43;;;;;;;31.90;20.90;;;5.50;91.50;;;;;;5029798;28;20627;-51
2020/12/03 03:20:10;;;;;;;28.63;19.07;;;5.50;91.80;;;;;;5039980;28;21236;-52
2020/12/03 03:22:39;;;;;;;28.33;19.77;;;5.50;91.80;;;;;;5049532;28;20630;-52
2020/12/03 03:25:06;;;;;;;31.63;22.10;;;5.50;92.00;;;;;;5048957;28;20776;-50
2020/12/03 03:27:33;;;;;;;27.50;19.83;;;5.50;91.70;;;;;;5049202;28;20658;-51
2020/12/03 03:30:00;;;;;;;31.63;21.50;;;5.60;91.60;;;;;;5046688;28;20780;-52
2020/12/03 03:32:27;;;;;;;32.57;21.10;;;5.60;91.50;;;;;;5047964;28;20626;-51
2020/12/03 03:34:54;;;;;;;26.87;18.97;;;5.60;91.40;;;;;;5048523;28;20642;-51
2020/12/03 03:37:21;;;;;;;26.47;19.20;;;5.60;91.30;;;;;;5049060;28;20755;-50
2020/12/03 03:39:48;;;;;;;32.67;19.40;;;5.60;91.30;;;;;;5042524;28;20665;-50
2020/12/03 03:42:14;;;;;;;24.67;14.70;;;5.50;91.10;;;;;;5030331;28;20626;-50
2020/12/03 03:44:41;;;;;;;27.93;19.90;;;5.50;91.20;;;;;;5042181;28;20630;-50
2020/12/03 03:47:09;;;;;;;27.43;20.37;;;5.60;91.20;;;;;;5052947;28;21213;-50
2020/12/03 03:49:36;;;;;;;20.43;13.73;;;5.60;91.40;;;;;;5047236;28;20709;-51
2020/12/03 03:52:03;;;;;;;22.70;16.97;;;5.60;91.20;;;;;;5052467;28;20630;-50
2020/12/03 03:54:29;;;;;;;21.70;17.33;;;5.50;90.90;;;;;;5043077;28;20677;-50
2020/12/03 03:56:56;;;;;;;25.40;18.07;;;5.60;91.00;;;;;;5032209;28;21162;-49
2020/12/03 03:59:23;;;;;;;24.97;16.50;;;5.50;91.00;;;;;;5032818;28;20650;-50
2020/12/03 04:01:50;;;;;;;25.97;18.57;;;5.60;91.00;;;;;;5032679;28;20662;-50
2020/12/03 04:04:17;;;;;;;26.90;17.30;;;5.60;91.40;;;;;;5033943;28;20695;-51
2020/12/03 04:06:44;;;;;;;22.00;15.10;;;5.70;91.00;;;;;;5032492;28;20728;-50
2020/12/03 04:09:11;;;;;;;23.13;17.10;;;5.60;90.70;;;;;;5037400;28;20708;-50
2020/12/03 04:11:38;;;;;;;24.80;16.87;;;5.70;90.50;;;;;;5052641;28;20699;-49
2020/12/03 04:14:04;;;;;;;25.67;17.13;;;5.70;90.40;;;;;;5047181;28;20623;-49
2020/12/03 04:16:31;;;;;;;21.73;15.87;;;5.70;90.30;;;;;;5031064;28;20663;-50
2020/12/03 04:18:58;;;;;;;20.97;15.03;;;5.80;90.30;;;;;;5032175;28;21229;-51
2020/12/03 04:21:26;;;;;;;24.27;17.60;;;5.70;90.20;;;;;;5048818;28;20660;-49
2020/12/03 04:23:52;;;;;;;21.50;15.87;;;5.70;90.20;;;;;;5048455;28;20619;-49
2020/12/03 04:26:19;;;;;;;20.77;13.43;;;5.80;90.30;;;;;;5032584;28;20658;-50
2020/12/03 04:28:46;;;;;;;28.93;16.60;;;5.80;90.20;;;;;;5037716;28;20666;-50
2020/12/03 04:31:13;;;;;;;17.07;13.70;;;5.80;90.20;;;;;;5052327;28;20652;-50
2020/12/03 04:33:39;;;;;;;22.30;15.50;;;5.80;90.20;;;;;;5050578;28;20676;-51
2020/12/03 04:36:06;;;;;;;22.70;15.37;;;5.80;90.40;;;;;;5032251;28;20651;-51
2020/12/03 04:38:34;;;;;;;24.90;15.93;;;5.80;90.50;;;;;;5030217;28;20704;-50
2020/12/03 04:41:01;;;;;;;26.00;18.10;;;5.80;90.30;;;;;;5031683;28;20622;-50
2020/12/03 04:43:31;;;;;;;19.97;15.63;;;5.80;90.30;;;;;;5031723;28;20668;-50
2020/12/03 04:46:00;;;;;;;25.83;17.17;;;5.70;90.40;;;;;;5031948;28;20659;-51
2020/12/03 04:48:59;;;;;;;22.70;15.70;;;5.70;90.60;;;;;;5031623;28;21186;-50
2020/12/03 04:51:41;;;;;;;17.53;14.23;;;5.70;90.70;;;;;;5049201;28;20626;-49
2020/12/03 04:54:27;;;;;;;24.83;16.47;;;5.70;91.00;;;;;;5046032;28;21172;-49
2020/12/03 04:56:58;;;;;;;22.03;14.70;;;5.70;90.70;;;;;;5030897;28;21239;-50
2020/12/03 04:59:53;;;;;;;19.70;15.37;;;5.80;90.70;;;;;;5032091;28;20653;-49
2020/12/03 05:02:45;;;;;;;20.70;15.20;;;5.70;90.70;;;;;;5028424;28;20634;-50
2020/12/03 05:05:22;;;;;;;22.33;15.27;;;5.60;90.90;;;;;;5047555;28;20691;-49
2020/12/03 05:07:54;;;;;;;20.60;13.83;;;5.60;90.90;;;;;;5051201;28;20691;-50
2020/12/03 05:10:25;;;;;;;18.37;14.10;;;5.60;90.90;;;;;;5051571;28;20662;-49
2020/12/03 05:12:52;;;;;;;20.17;14.67;;;5.60;91.20;;;;;;5040666;28;20639;-50
2020/12/03 05:15:20;;;;;;;24.37;15.50;;;5.60;90.90;;;;;;5033516;28;20631;-49
2020/12/03 05:17:57;;;;;;;20.93;14.17;;;5.50;91.00;;;;;;5031546;28;21167;-50
2020/12/03 05:20:36;;;;;;;19.20;14.00;;;5.60;91.20;;;;;;5044087;28;20741;-50
2020/12/03 05:23:13;;;;;;;19.43;15.20;;;5.50;91.20;;;;;;5039530;28;20682;-50
2020/12/03 05:25:41;;;;;;;14.63;12.23;;;5.50;91.30;;;;;;5043801;28;20704;-54
2020/12/03 05:28:27;;;;;;;17.50;12.00;;;5.60;91.30;;;;;;5050895;28;21206;-53
2020/12/03 05:30:56;;;;;;;17.60;13.03;;;5.50;91.20;;;;;;5038619;28;20661;-54
2020/12/03 05:33:23;;;;;;;18.07;14.70;;;5.50;91.30;;;;;;5050315;28;20635;-53
2020/12/03 05:35:50;;;;;;;22.57;14.87;;;5.50;91.40;;;;;;5050556;28;20719;-54
2020/12/03 05:38:17;;;;;;;22.17;15.73;;;5.50;91.50;;;;;;5046422;28;20635;-53
2020/12/03 05:40:46;;;;;;;20.33;15.40;;;5.50;91.70;;;;;;5048812;28;20626;-53
2020/12/03 05:43:13;;;;;;;18.47;14.27;;;5.50;91.30;;;;;;5040573;28;20627;-51
2020/12/03 05:45:40;;;;;;;16.70;14.60;;;5.60;91.40;;;;;;5047765;28;21072;-53
2020/12/03 05:48:07;;;;;;;29.07;17.93;;;5.60;91.30;;;;;;5047651;28;20634;-53
2020/12/03 05:50:36;;;;;;;21.50;16.40;;;5.60;91.40;;;;;;5050595;28;20658;-54
2020/12/03 05:53:05;;;;;;;16.50;14.10;;;5.60;91.00;;;;;;5048779;28;20733;-54
2020/12/03 05:55:32;;;;;;;19.77;14.97;;;5.60;90.80;;;;;;5055403;28;21158;-54
2020/12/03 05:58:19;;;;;;;21.80;14.97;;;5.60;90.80;;;;;;5050123;28;20661;-54
2020/12/03 06:00:45;;;;;;;17.80;12.87;;;5.60;90.90;;;;;;5051015;28;20982;-52
2020/12/03 06:03:31;;;;;;;17.60;13.80;;;5.60;90.90;;;;;;5032821;28;20623;-53
2020/12/03 06:06:19;;;;;;;22.37;15.27;;;5.60;90.90;;;;;;5029830;28;20650;-53
2020/12/03 06:08:54;;;;;;;17.00;14.40;;;5.60;91.10;;;;;;5049743;28;20629;-54
2020/12/03 06:11:35;;;;;;;18.77;15.10;;;5.60;91.10;;;;;;5049380;28;20661;-54
2020/12/03 06:14:29;;;;;;;19.70;14.63;;;5.60;91.00;;;;;;5049580;28;20618;-54
2020/12/03 06:17:00;;;;;;;18.43;14.80;;;5.70;90.90;;;;;;5049589;28;20718;-53
2020/12/03 06:19:34;;;;;;;17.77;13.30;;;5.80;90.50;;;;;;5047143;28;21048;-53
2020/12/03 06:22:05;;;;;;;18.90;14.33;;;5.80;90.60;;;;;;5036860;28;20683;-51
2020/12/03 06:24:44;;;;;;;12.90;10.30;;;5.80;90.50;;;;;;5049876;28;21272;-53
2020/12/03 06:27:32;;;;;;;18.60;12.60;;;5.80;90.10;;;;;;5048338;28;20658;-49
2020/12/03 06:30:09;;;;;;;18.13;13.83;;;5.80;90.30;;;;;;5046718;28;20655;-53
2020/12/03 06:32:58;;;;;;;18.20;12.40;;;5.80;90.30;;;;;;5029208;28;20623;-55
2020/12/03 06:35:32;;;;;;;14.30;12.40;;;5.80;90.30;;;;;;5030542;28;21151;-51
2020/12/03 06:38:04;;;;;;;16.40;12.07;;;5.70;90.10;;;;;;5029195;28;20626;-51
2020/12/03 06:40:34;;;;;;;16.67;12.67;;;5.70;90.50;;;;;;5036672;28;20637;-49
2020/12/03 06:43:09;;;;;;;14.73;13.03;;;5.60;90.20;;;;;;5048989;28;20660;-49
2020/12/03 06:45:41;;;;;;;14.50;12.40;;;5.60;90.20;;;;;;5049989;28;20653;-49
2020/12/03 06:48:30;;;;;;;15.47;11.07;;;5.60;90.40;;;;;;5036645;28;20633;-49
2020/12/03 06:51:06;;;;;;;19.40;15.63;;;5.60;90.40;;;;;;5042927;28;20720;-50
2020/12/03 06:53:53;;;;;;;17.83;13.03;;;5.50;90.30;;;;;;5049491;28;20635;-51
2020/12/03 06:56:46;;;;;;;13.60;11.10;;;5.50;90.60;;;;;;5050024;28;20674;-53
2020/12/03 06:59:34;;;;;;;17.10;13.50;;;5.50;90.70;;;;;;5026127;28;20662;-50
2020/12/03 07:02:28;;;;;;;18.87;14.10;;;5.50;90.70;;;;;;5030216;28;20979;-52
2020/12/03 07:05:21;;;;;;;20.13;15.50;;;5.60;90.90;;;;;;5029318;28;20626;-49
2020/12/03 07:08:21;;;;;;;20.00;15.27;;;5.60;90.80;;;;;;5030173;28;20768;-49
2020/12/03 07:11:27;;;;;;;18.77;12.93;;;5.60;90.80;;;;;;5029605;28;20655;-49
2020/12/03 07:14:33;;;;;;;19.70;15.50;;;5.60;91.00;;;;;;5012334;28;20681;-49
2020/12/03 07:17:23;;;;;;;19.13;14.30;;;5.70;91.10;;;;;;5032691;28;20712;-49
2020/12/03 07:20:02;;;;;;;17.97;14.80;;;5.70;90.70;;;;;;5039644;28;20662;-50
2020/12/03 07:22:31;;;;;;;19.37;16.50;;;5.70;90.40;;;;;;5053517;28;20696;-53
2020/12/03 07:24:58;;;;;;;17.50;11.97;;;5.70;90.50;;;;;;5050058;28;20664;-50
2020/12/03 07:27:54;;;;;;;17.70;12.50;;;5.70;90.60;;;;;;5033756;28;20634;-49
2020/12/03 07:30:37;;;;;;;19.87;16.63;;;5.70;90.70;;;;;;5026616;28;20655;-51
2020/12/03 07:33:05;;;;;;;18.00;14.93;;;5.70;90.90;;;;;;5042583;28;20638;-51
2020/12/03 07:35:36;;;;;;;19.67;13.80;;;5.70;90.80;;;;;;5038394;28;21190;-52
2020/12/03 07:38:06;;;;;;;14.80;11.13;;;5.70;90.90;;;;;;5036568;28;21187;-52
2020/12/03 07:40:33;;;;;;;22.10;15.63;;;5.70;91.00;;;;;;5049771;28;20626;-52
2020/12/03 07:43:01;;;;;;;17.90;14.60;;;5.70;90.80;;;;;;5048701;28;20692;-52
2020/12/03 07:45:43;;;;;;;21.10;17.00;;;5.60;91.20;;;;;;5043000;28;20736;-53
2020/12/03 07:48:13;;;;;;;19.73;17.40;;;5.60;91.40;;;;;;5043232;28;21061;-51
2020/12/03 07:51:04;;;;;;;19.47;15.07;;;5.70;91.10;;;;;;5042709;28;20654;-51
2020/12/03 07:53:31;;;;;;;20.90;18.63;;;5.70;91.00;;;;;;5043341;28;20634;-52
2020/12/03 07:55:58;;;;;;;24.20;16.80;;;5.70;90.90;;;;;;5041702;28;21246;-52
2020/12/03 07:58:33;;;;;;;22.17;17.17;;;5.70;90.90;;;;;;5033269;28;20682;-51
2020/12/03 08:01:00;;;;;;;24.33;18.13;;;5.70;90.90;;;;;;5033442;28;20681;-52
2020/12/03 08:03:46;;;;;;;14.30;12.80;;;5.70;91.00;;;;;;5033549;28;20619;-52
2020/12/03 08:06:20;;;;;;;21.30;16.60;;;5.70;91.00;;;;;;5035468;28;20704;-54
2020/12/03 08:08:48;;;;;;;19.67;13.07;;;5.70;91.10;;;;;;5032046;28;20630;-50
2020/12/03 08:11:40;;;;;;;21.10;16.00;;;5.70;91.00;;;;;;5032751;28;20739;-51
2020/12/03 08:14:30;;;;;;;16.83;13.63;;;5.70;91.30;;;;;;5032859;28;20677;-54
2020/12/03 08:16:58;;;;;;;24.43;17.10;;;5.70;91.00;;;;;;5033162;28;20736;-55
2020/12/03 08:19:26;;;;;;;20.90;18.23;;;5.70;90.80;;;;;;5034024;28;20627;-51
2020/12/03 08:21:54;;;;;;;16.77;12.93;;;5.80;90.90;;;;;;5052925;28;20637;-50
2020/12/03 08:24:23;;;;;;;17.50;13.40;;;5.80;90.70;;;;;;5053029;28;20638;-51
2020/12/03 08:26:55;;;;;;;19.47;13.53;;;5.80;90.80;;;;;;5052302;28;20733;-49
2020/12/03 08:29:44;;;;;;;21.60;17.30;;;5.80;90.70;;;;;;5052659;28;20683;-53
2020/12/03 08:32:11;;;;;;;20.03;17.30;;;5.80;90.60;;;;;;5067802;28;21017;-50
2020/12/03 08:34:39;;;;;;;21.27;16.90;;;5.90;90.50;;;;;;5052283;28;20676;-51
2020/12/03 08:37:10;;;;;;;20.73;15.03;;;6.00;90.50;;;;;;5052501;28;20665;-50
2020/12/03 08:39:37;;;;;;;19.50;16.63;;;6.00;90.40;;;;;;5052236;28;20667;-53
2020/12/03 08:42:06;;;;;;;24.00;15.87;;;6.00;90.20;;;;;;5052082;28;21235;-51
2020/12/03 08:44:33;;;;;;;18.33;16.20;;;6.10;90.30;;;;;;5051575;28;20630;-50
2020/12/03 08:47:02;;;;;;;22.73;16.43;;;6.10;90.20;;;;;;5051870;28;20658;-49
2020/12/03 08:49:29;;;;;;;24.33;18.07;;;6.10;90.30;;;;;;5052988;28;20695;-52
2020/12/03 08:51:58;;;;;;;21.80;16.03;;;6.20;90.00;;;;;;5071784;28;20693;-50
2020/12/03 08:54:26;;;;;;;19.27;15.97;;;6.20;89.90;;;;;;5070682;28;20655;-52
2020/12/03 08:56:55;;;;;;;18.03;14.13;;;6.20;89.70;;;;;;5071430;28;21004;-51
2020/12/03 08:59:26;;;;;;;21.13;15.67;;;6.20;89.40;;;;;;5070997;28;20679;-52
2020/12/03 09:02:01;;;;;;;17.60;13.77;;;6.10;89.10;;;;;;5071987;28;20630;-52
2020/12/03 09:04:29;;;;;;;22.20;17.23;;;6.20;89.10;;;;;;5070703;28;20617;-51
2020/12/03 09:06:56;;;;;;;19.40;15.70;;;6.20;89.30;;;;;;5071511;28;20766;-52
2020/12/03 09:09:24;;;;;;;19.77;15.60;;;6.20;89.00;;;;;;5071423;28;20718;-51
2020/12/03 09:11:51;;;;;;;17.93;15.77;;;6.20;89.00;;;;;;5069514;28;20698;-54
2020/12/03 09:14:18;;;;;;;18.03;15.60;;;6.30;89.10;;;;;;5071129;28;20630;-53
2020/12/03 09:16:47;;;;;;;16.77;13.53;;;6.30;88.70;;;;;;5071573;28;21281;-53
2020/12/03 09:19:22;;;;;;;15.07;12.93;;;6.30;88.00;;;;;;5071342;28;20631;-54
2020/12/03 09:21:49;;;;;;;14.20;12.17;;;6.30;87.60;;;;;;5031922;28;21166;-53
2020/12/03 09:24:17;;;;;;;15.10;12.67;;;6.30;87.40;;;;;;5031300;28;21355;-49
2020/12/03 09:26:44;;;;;;;13.70;10.40;;;6.30;86.90;;;;;;5031999;28;20697;-50
2020/12/03 09:29:11;;;;;;;14.47;12.03;;;6.40;86.90;;;;;;5030915;28;20686;-49
2020/12/03 09:31:38;;;;;;;12.50;10.53;;;6.30;86.90;;;;;;5030481;28;20658;-51
2020/12/03 09:34:05;;;;;;;14.87;13.30;;;6.30;87.00;;;;;;5031108;28;20677;-50
2020/12/03 09:36:32;;;;;;;11.00;9.90;;;6.30;87.40;;;;;;5030239;28;20698;-51
2020/12/03 09:38:59;;;;;;;15.13;11.83;;;6.30;86.50;;;;;;5031145;28;21003;-50
2020/12/03 09:41:27;;;;;;;12.50;10.37;;;6.30;86.60;;;;;;5031274;28;20636;-54
2020/12/03 09:43:56;;;;;;;12.97;10.40;;;6.30;86.60;;;;;;5031033;28;20693;-52
2020/12/03 09:46:25;;;;;;;13.93;11.27;;;6.30;86.40;;;;;;5031424;28;20706;-52
2020/12/03 09:48:52;;;;;;;12.30;10.63;;;6.30;86.00;;;;;;5030668;28;21030;-51
2020/12/03 09:51:21;;;;;;;12.23;10.47;;;6.20;86.60;;;;;;5064140;28;20654;-52
2020/12/03 09:53:48;;;;;;;12.80;9.57;;;6.20;87.20;;;;;;5071206;28;20789;-53
2020/12/03 09:56:15;;;;;;;12.27;9.87;;;6.20;87.00;;;;;;5070697;28;20732;-51
2020/12/03 09:58:42;;;;;;;13.70;10.50;;;6.20;86.70;;;;;;5070489;28;20691;-51
2020/12/03 10:01:09;;;;;;;13.63;11.10;;;6.20;87.50;;;;;;5069975;28;20623;-51
2020/12/03 10:04:16;;;;;;;12.73;9.77;;;6.20;88.10;;;;;;5070034;28;20641;-51
2020/12/03 10:06:47;;;;;;;16.17;11.27;;;6.20;87.10;;;;;;5070581;28;21294;-51
2020/12/03 10:09:28;;;;;;;12.83;10.70;;;6.20;87.00;;;;;;5070240;28;20625;-52
2020/12/03 10:12:27;;;;;;;14.80;11.73;;;6.20;88.10;;;;;;5070504;28;21017;-52
2020/12/03 10:15:23;;;;;;;15.53;11.00;;;6.20;87.10;;;;;;5065339;28;20969;-52
2020/12/03 10:18:09;;;;;;;13.40;8.60;;;6.20;87.40;;;;;;5070261;28;20970;-49
2020/12/03 10:20:36;;;;;;;15.77;12.90;;;6.10;87.40;;;;;;5070571;28;20692;-50
2020/12/03 10:23:36;;;;;;;23.20;17.20;;;6.00;87.70;;;;;;5070149;28;21050;-50
2020/12/03 10:26:12;;;;;;;17.27;12.50;;;6.10;88.70;;;;;;5063317;28;20662;-52
2020/12/03 10:28:41;;;;;;;18.33;13.23;;;6.10;88.90;;;;;;5070664;28;21226;-51
2020/12/03 10:31:09;;;;;;;17.00;13.10;;;6.10;88.70;;;;;;5069718;28;20658;-52
2020/12/03 10:33:36;;;;;;;17.27;13.50;;;6.00;89.00;;;;;;5069637;28;20661;-52
2020/12/03 10:36:08;;;;;;;14.77;10.90;;;6.10;89.60;;;;;;5069876;28;20653;-52
2020/12/03 10:38:38;;;;;;;22.50;15.57;;;6.10;89.70;;;;;;5070507;28;20629;-52
2020/12/03 10:41:05;;;;;;;24.53;18.13;;;6.10;90.00;;;;;;5070133;28;20991;-51
2020/12/03 10:43:35;;;;;;;22.50;17.70;;;6.20;89.30;;;;;;5070282;28;20666;-52
2020/12/03 10:46:04;;;;;;;25.00;17.53;;;6.20;89.00;;;;;;5070002;28;20657;-52
2020/12/03 10:48:34;;;;;;;20.37;17.20;;;6.30;88.60;;;;;;5070184;28;20629;-51
2020/12/03 10:51:03;;;;;;;23.87;17.57;;;6.40;88.10;;;;;;5057323;28;20655;-53
2020/12/03 10:53:32;;;;;;;22.20;14.90;;;6.30;87.90;;;;;;5049205;28;20629;-51
2020/12/03 10:55:59;;;;;;;24.60;17.87;;;6.40;88.00;;;;;;5049849;28;20658;-52
2020/12/03 10:58:30;;;;;;;24.63;17.13;;;6.40;88.20;;;;;;5049605;28;20627;-53
2020/12/03 11:00:58;;;;;;;21.87;14.40;;;6.40;88.50;;;;;;5049685;28;20640;-53
2020/12/03 11:03:27;;;;;;;20.53;14.83;;;6.40;87.00;;;;;;5049220;28;20627;-53
2020/12/03 11:05:55;;;;;;;21.07;17.03;;;6.40;86.50;;;;;;5050224;28;21059;-53
2020/12/03 11:08:22;;;;;;;17.50;14.00;;;6.30;86.50;;;;;;5049856;28;20684;-51
2020/12/03 11:10:52;;;;;;;18.17;15.27;;;6.30;86.50;;;;;;5049256;28;20674;-53
2020/12/03 11:13:20;;;;;;;18.73;15.40;;;6.40;86.80;;;;;;5049741;28;20723;-54
2020/12/03 11:15:48;;;;;;;24.60;16.40;;;6.40;86.60;;;;;;5049499;28;20655;-52
2020/12/03 11:18:18;;;;;;;16.73;14.43;;;6.50;86.20;;;;;;5049732;28;20664;-52
2020/12/03 11:20:45;;;;;;;16.87;14.27;;;6.50;84.60;;;;;;5061684;28;20633;-53
2020/12/03 11:23:20;;;;;;;20.40;13.33;;;6.50;84.20;;;;;;5070122;28;20619;-54
2020/12/03 11:25:47;;;;;;;17.87;13.40;;;6.60;84.10;;;;;;5069501;28;20710;-52
2020/12/03 11:28:30;;;;;;;20.20;14.63;;;6.60;83.20;;;;;;5067745;28;20703;-52
2020/12/03 11:31:04;;;;;;;15.67;10.80;;;6.60;83.00;;;;;;5069563;28;20629;-51
2020/12/03 11:33:32;;;;;;;14.90;10.90;;;6.70;81.60;;;;;;5069827;28;20626;-51
2020/12/03 11:36:10;;;;;;;14.80;12.17;;;6.60;81.60;;;;;;5069446;28;20671;-52
2020/12/03 11:38:39;;;;;;;15.30;13.20;;;6.70;80.30;;;;;;5070292;28;21236;-54
2020/12/03 11:41:11;;;;;;;13.87;10.87;;;6.70;80.50;;;;;;5070260;28;20638;-54
2020/12/03 11:43:53;;;;;;;12.83;11.43;;;6.70;79.60;;;;;;5069100;28;20649;-52
2020/12/03 11:49:08;;;;;;;11.90;7.90;;;6.80;78.20;;;;;;5062024;28;20615;-49
2020/12/03 11:51:36;;;;;;;12.63;9.20;;;6.80;77.80;;;;;;5069203;28;20903;-50
2020/12/03 11:54:05;;;;;;;10.20;7.47;;;6.80;77.30;;;;;;5069187;28;20671;-50
2020/12/03 11:56:32;;;;;;;11.53;9.23;;;6.90;77.20;;;;;;5070069;28;21059;-50
2020/12/03 11:59:13;;;;;;;13.70;8.40;;;6.90;76.70;;;;;;5069070;28;20623;-50
2020/12/03 12:01:40;;;;;;;9.60;8.60;;;6.90;77.10;;;;;;5069630;28;20706;-50
2020/12/03 12:04:11;;;;;;;14.40;10.43;;;7.00;77.50;;;;;;5072150;28;20621;-49
2020/12/03 12:06:49;;;;;;;11.50;8.70;;;6.90;76.70;;;;;;5072968;28;20647;-52
2020/12/03 12:09:21;;;;;;;10.77;9.13;;;7.00;76.80;;;;;;5072940;28;20630;-52
2020/12/03 12:11:48;;;;;;;10.90;8.10;;;7.00;76.40;;;;;;5070908;28;20739;-51
2020/12/03 12:14:16;;;;;;;8.17;6.83;;;7.00;75.90;;;;;;5073332;28;20827;-54
2020/12/03 12:16:42;;;;;;;12.10;7.43;;;7.10;76.70;;;;;;5072439;28;20686;-49
2020/12/03 12:19:09;;;;;;;8.43;6.70;;;7.10;76.40;;;;;;5071082;28;20720;-49
2020/12/03 12:21:37;;;;;;;12.43;9.17;;;7.10;76.30;;;;;;5072752;28;20665;-50
2020/12/03 12:24:04;;;;;;;8.90;7.50;;;7.10;75.20;;;;;;5072864;28;20637;-49
2020/12/03 12:26:31;;;;;;;11.77;7.40;;;7.00;75.50;;;;;;5072515;28;20789;-53
2020/12/03 12:28:58;;;;;;;9.73;7.90;;;7.00;75.30;;;;;;5071845;28;20628;-52
2020/12/03 12:31:25;;;;;;;11.83;8.97;;;7.10;75.30;;;;;;5072834;28;20652;-51
2020/12/03 12:33:52;;;;;;;12.37;9.20;;;7.10;75.80;;;;;;5072712;28;20673;-51
2020/12/03 12:36:19;;;;;;;10.83;9.20;;;7.00;75.50;;;;;;5071783;28;20667;-54
2020/12/03 12:38:46;;;;;;;10.33;7.00;;;7.10;75.50;;;;;;5071861;28;20988;-54
2020/12/03 12:41:13;;;;;;;9.80;7.93;;;7.20;76.80;;;;;;5071712;28;20633;-54
2020/12/03 12:43:40;;;;;;;8.57;7.80;;;7.20;75.40;;;;;;5072113;28;20671;-54
2020/12/03 12:46:07;;;;;;;9.70;8.67;;;7.20;75.60;;;;;;5071902;28;20650;-53
2020/12/03 12:48:34;;;;;;;13.73;9.50;;;7.20;76.20;;;;;;5071944;28;20639;-53
2020/12/03 12:51:01;;;;;;;10.33;8.27;;;7.30;75.90;;;;;;5070222;28;20639;-53
2020/12/03 12:53:28;;;;;;;10.17;6.60;;;7.30;75.20;;;;;;5071721;28;20733;-54
2020/12/03 12:55:55;;;;;;;9.63;8.60;;;7.30;75.50;;;;;;5071990;28;21291;-53
2020/12/03 12:58:22;;;;;;;8.20;6.87;;;7.30;75.50;;;;;;5071689;28;20678;-54
2020/12/03 13:00:49;;;;;;;11.27;8.00;;;7.30;76.20;;;;;;5071970;28;20627;-51